Terminal Aerodrome Forecast
Issued by NWS

Home | Current Version | Previous Version | Text Only | Print | Product List | Glossary On
Versions: 1 2 3 4 5 6 7 8 9 10 11 12 13 14 15
468
FTUS45 KRIW 231720
TAFCPR
TAF
KCPR 231720Z 2318/2418 22006KT P6SM SKC
     FM232200 15007KT P6SM SCT120
     FM240600 21007KT P6SM SKC
     FM241500 24011G21KT P6SM SCT100=

USA.gov is the U.S. government's official web portal to all federal, state and local government web resources and services.